Bayou Petite Prairie, Louisiana
Current Conditions -  °F | °C
As of 2:55 PM on Friday 31 Oct 2014 (Local Time) from KOPL Reporting Station
Broken Clouds Broken Clouds  
Wind Chill: 72°   Ceiling: 200
Heat Index: 72°   Visibility: 10mi
Dew Point: 46°   Wind: 10mph
Humidity: 38%   Direction: 350°N
Pressure: 30.08"   Gusts: 24mph
Location:  30.7315°N, 91.9765°W
Report Text: KOPL 311955Z AUTO 35009G21KT 10SM BKN002 22/08 A3008 RMK AO2 T02240075
Loading
Personal Weather Stations






























Interactive Weather Map
Tropical Storm Tracking
New forecast layout! Learn more

10-Day Weather Forecast

Advertisements
Track Severe Weather on mobile